Tarpon — WDG9715 — position and weather

sailwx.info

Track history (hours):
 
Tides and Currents Weather Stations Pressure Air Temp Water Temp Dewpoint Dewpoint Depression Visibility Wind Speed Wind Dir Waves Ship Positions

Tarpon

Owner: Kirby Offshore Marine, LLC, Staten Island, NY. More information available from US FCC via Universal Licensing System and Coast Guard Vessel Documentation Center.

Last reported at 2018-Jun-25 11:24 UTC. Time now 2018-Jun-25 19:46 UTC.
Position N 40°30' W 073°56'.

Length 128 m; draft 4.9 m.

Type: . MMSI: 366920940.

Date/timePositionNaut miles runAvg speedWind from/ knotsBaromVisibWave heightAir tempDewpointWater temp
2018-Jun-25 11:24N 40°30' W 073°56'4 6.6
2018-Jun-25 10:46N 40°32' W 074°01'2 6.0
2018-Jun-25 10:29N 40°33' W 074°02'3 6.3
2018-Jun-25 10:00N 40°36' W 074°03'3 6.2
2018-Jun-25 09:30N 40°39' W 074°04'2 4.9
2018-Jun-25 09:00N 40°39' W 074°07'3 5.6
2018-Jun-25 08:30N 40°39' W 074°11'1 2.5
2018-Jun-25 08:00N 40°38' W 074°12'0 0.0
2018-Jun-25 07:25N 40°38' W 074°12'0 0.0
2018-Jun-25 06:53N 40°38' W 074°12'0 0.0
2018-Jun-25 06:26N 40°38' W 074°12'0 0.0
2018-Jun-25 05:56N 40°38' W 074°12'0 0.0
2018-Jun-25 05:29N 40°38' W 074°12'0 0.0
2018-Jun-25 04:59N 40°38' W 074°12'0 0.0
2018-Jun-25 04:26N 40°38' W 074°12'0 0.0
2018-Jun-25 03:59N 40°38' W 074°12'0 0.0
2018-Jun-25 03:29N 40°38' W 074°12'0 0.0
2018-Jun-25 02:59N 40°38' W 074°12'0 0.0
2018-Jun-25 02:29N 40°38' W 074°12'0 0.0
2018-Jun-25 01:59N 40°38' W 074°12'0 0.0
2018-Jun-25 01:29N 40°38' W 074°12'0 0.0
2018-Jun-25 00:59N 40°38' W 074°12'0 0.0
2018-Jun-25 00:29N 40°38' W 074°12'0 0.0
2018-Jun-24 23:59N 40°38' W 074°12'0 0.0
2018-Jun-24 23:29N 40°38' W 074°12'0 0.0
2018-Jun-24 22:59N 40°38' W 074°12'0 0.0
2018-Jun-24 22:29N 40°38' W 074°12'0 0.0
2018-Jun-24 21:59N 40°38' W 074°12'0 0.0
2018-Jun-24 21:29N 40°38' W 074°12'0 0.0
2018-Jun-24 20:59N 40°38' W 074°12'0 0.0
2018-Jun-24 20:29N 40°38' W 074°12'0 0.0
2018-Jun-24 19:59N 40°38' W 074°12'0 0.0
2018-Jun-24 19:29N 40°38' W 074°12'0 0.0
2018-Jun-24 18:59N 40°38' W 074°12'0 0.0
2018-Jun-24 18:29N 40°38' W 074°12'0 0.0
2018-Jun-24 17:26N 40°38' W 074°12'0 0.0
2018-Jun-24 16:41N 40°38' W 074°12'0 0.0
2018-Jun-24 16:23N 40°38' W 074°12'0 0.0
2018-Jun-24 15:59N 40°38' W 074°12'0 0.0
2018-Jun-24 15:29N 40°38' W 074°12'0 0.0
2018-Jun-24 14:59N 40°38' W 074°12'0 0.0
2018-Jun-24 14:29N 40°38' W 074°12'0 0.0
2018-Jun-24 13:56N 40°38' W 074°12'0 0.0
2018-Jun-24 13:29N 40°38' W 074°12'0 0.0
2018-Jun-24 12:59N 40°38' W 074°12'0 0.0
2018-Jun-24 12:29N 40°38' W 074°12'0 0.0
2018-Jun-24 11:53N 40°38' W 074°12'0 0.0
2018-Jun-24 11:26N 40°38' W 074°12'0 0.0
2018-Jun-24 10:53N 40°38' W 074°12'0 0.0
2018-Jun-24 10:29N 40°38' W 074°12'0 0.0
2018-Jun-24 09:56N 40°38' W 074°12'0 0.0
2018-Jun-24 09:29N 40°38' W 074°12'0 0.0
2018-Jun-24 08:56N 40°38' W 074°12'0 0.0
2018-Jun-24 08:20N 40°38' W 074°12'0 0.0
2018-Jun-24 07:59N 40°38' W 074°12'0 0.0
2018-Jun-24 07:29N 40°38' W 074°12'0 0.0
2018-Jun-24 06:56N 40°38' W 074°12'0 0.0
2018-Jun-24 06:29N 40°38' W 074°12'0 0.0
2018-Jun-24 05:35N 40°38' W 074°12'0 0.0
2018-Jun-24 05:25N 40°38' W 074°12'1 1.3
2018-Jun-24 04:50N 40°38' W 074°12'2 5.6
2018-Jun-24 04:31N 40°39' W 074°09'0 0.5
2018-Jun-24 03:58N 40°38' W 074°09'0 0.0
2018-Jun-24 03:28N 40°38' W 074°09'0 0.0
2018-Jun-24 02:59N 40°38' W 074°09'0 0.0
2018-Jun-24 02:28N 40°38' W 074°10'0 0.0
2018-Jun-24 01:58N 40°38' W 074°10'0 0.0
2018-Jun-23 12:34N 40°39' W 074°10'0 3.0
2018-Jun-23 12:30N 40°38' W 074°10'0 0.3
2018-Jun-23 12:00N 40°38' W 074°09'0 0.0
2018-Jun-23 11:28N 40°38' W 074°09'0 0.0
2018-Jun-23 10:58N 40°38' W 074°10'0 0.0
2018-Jun-23 10:28N 40°38' W 074°09'0 0.0
2018-Jun-23 09:58N 40°38' W 074°09'0 0.0
2018-Jun-23 09:28N 40°38' W 074°10'0 0.0
2018-Jun-23 08:58N 40°38' W 074°09'0 0.0
2018-Jun-23 08:28N 40°38' W 074°09'0 0.0
2018-Jun-23 07:58N 40°38' W 074°09'0 0.0
2018-Jun-23 07:28N 40°38' W 074°09'0 0.0
2018-Jun-23 06:58N 40°38' W 074°09'0 0.0
2018-Jun-23 06:28N 40°38' W 074°10'0 0.0
2018-Jun-23 05:58N 40°38' W 074°09'0 0.0
2018-Jun-23 05:28N 40°38' W 074°09'0 0.0
2018-Jun-23 04:58N 40°38' W 074°10'0 0.0
2018-Jun-23 04:28N 40°38' W 074°09'0 0.0
2018-Jun-23 03:58N 40°38' W 074°10'0 0.0
2018-Jun-23 03:25N 40°38' W 074°09'0 0.0
2018-Jun-23 02:58N 40°38' W 074°09'0 0.0
2018-Jun-23 02:25N 40°38' W 074°09'0 0.0
2018-Jun-23 01:58N 40°38' W 074°10'0 0.0
2018-Jun-23 01:25N 40°38' W 074°09'0 0.0
2018-Jun-23 00:58N 40°38' W 074°10'0 0.0
2018-Jun-23 00:28N 40°38' W 074°09'0 0.0
2018-Jun-22 23:55N 40°38' W 074°09'0 0.0
2018-Jun-22 23:28N 40°38' W 074°10'0 0.0
2018-Jun-22 22:58N 40°38' W 074°09'0 0.0
2018-Jun-22 22:28N 40°38' W 074°09'0 0.0
2018-Jun-22 21:58N 40°38' W 074°10'0 0.0
2018-Jun-22 21:28N 40°38' W 074°10'0 0.0
2018-Jun-22 21:00N 40°38' W 074°09'1 2.8
2018-Jun-22 20:30N 40°39' W 074°08'4 7.5
2018-Jun-22 20:00N 40°40' W 074°03'0 0.5
2018-Jun-22 19:28N 40°40' W 074°03'0 0.0
2018-Jun-22 18:58N 40°40' W 074°03'0 0.0
2018-Jun-22 18:28N 40°40' W 074°03'0 0.2
2018-Jun-22 17:55N 40°40' W 074°03'0 0.1
2018-Jun-22 17:28N 40°40' W 074°03'0 0.1
2018-Jun-22 16:52N 40°40' W 074°03'0 0.0
2018-Jun-22 16:28N 40°40' W 074°03'0 0.0
2018-Jun-22 15:58N 40°40' W 074°03'2 4.2
2018-Jun-22 15:30N 40°39' W 074°05'4 3.3
2018-Jun-22 14:24N 40°39' W 074°10'3 8.2
2018-Jun-22 14:00N 40°39' W 074°06'2 4.7
2018-Jun-22 13:30N 40°40' W 074°03'0 0.1
2018-Jun-22 12:58N 40°40' W 074°03'0 0.0
2018-Jun-22 12:28N 40°40' W 074°03'0 0.0
2018-Jun-22 11:58N 40°40' W 074°03'0 0.0
2018-Jun-22 11:25N 40°40' W 074°03'0 0.0
2018-Jun-22 10:58N 40°40' W 074°03'0 0.2
2018-Jun-22 10:28N 40°40' W 074°03'0 0.1
2018-Jun-22 09:58N 40°40' W 074°03'0 0.2
2018-Jun-22 09:28N 40°40' W 074°03'0 0.1
2018-Jun-22 08:58N 40°40' W 074°03'0 0.1
2018-Jun-22 08:28N 40°40' W 074°03'0 0.0
2018-Jun-22 07:58N 40°40' W 074°03'0 0.1
2018-Jun-22 07:28N 40°40' W 074°03'0 0.1
2018-Jun-22 06:58N 40°40' W 074°03'0 0.1
2018-Jun-22 06:28N 40°40' W 074°03'0 0.1
2018-Jun-22 05:58N 40°40' W 074°03'0 0.1
2018-Jun-22 05:28N 40°40' W 074°03'0 0.1
2018-Jun-22 04:58N 40°40' W 074°03'0 0.0
2018-Jun-22 04:28N 40°40' W 074°03'0 0.0
2018-Jun-22 03:58N 40°40' W 074°03'0 0.0
2018-Jun-22 03:28N 40°40' W 074°03'0 0.0
2018-Jun-22 02:58N 40°40' W 074°03'0 0.0
2018-Jun-22 02:28N 40°40' W 074°03'0 0.1
2018-Jun-22 01:55N 40°40' W 074°03'0 0.1
2018-Jun-22 01:28N 40°40' W 074°03'0 0.1
2018-Jun-22 00:58N 40°40' W 074°03'0 0.0
2018-Jun-22 00:28N 40°40' W 074°03'0 0.2
2018-Jun-21 23:58N 40°40' W 074°03'0 0.2
2018-Jun-21 23:28N 40°40' W 074°03'0 0.1
2018-Jun-21 22:58N 40°40' W 074°03'0 0.1
2018-Jun-21 22:28N 40°40' W 074°03'0 0.1
2018-Jun-21 21:58N 40°40' W 074°03'0 0.1
2018-Jun-21 21:28N 40°40' W 074°03'0 0.1
2018-Jun-21 20:58N 40°40' W 074°03'0 0.0
2018-Jun-21 20:28N 40°40' W 074°03'0 0.0
2018-Jun-21 19:55N 40°40' W 074°03'0 0.0
2018-Jun-21 19:28N 40°40' W 074°03'0 0.0
2018-Jun-21 18:58N 40°40' W 074°03'0 0.3
2018-Jun-21 18:28N 40°40' W 074°03'0 0.1
2018-Jun-21 17:58N 40°40' W 074°03'0 0.0
2018-Jun-21 17:28N 40°40' W 074°03'0 0.0
2018-Jun-21 16:58N 40°40' W 074°03'0 0.0
2018-Jun-21 16:28N 40°40' W 074°03'0 0.0
2018-Jun-21 15:58N 40°40' W 074°03'0 0.0
2018-Jun-21 15:28N 40°40' W 074°03'0 0.0
2018-Jun-21 14:58N 40°40' W 074°03'0 0.0
2018-Jun-21 14:28N 40°40' W 074°03'0 0.0
2018-Jun-21 13:58N 40°40' W 074°03'0 0.0
2018-Jun-21 13:28N 40°40' W 074°03'0 0.0
2018-Jun-21 12:58N 40°40' W 074°03'0 0.0
2018-Jun-21 12:28N 40°40' W 074°03'0 0.0
2018-Jun-21 11:58N 40°40' W 074°03'0 0.1
2018-Jun-21 11:28N 40°40' W 074°03'0 0.0
2018-Jun-21 10:58N 40°40' W 074°03'0 0.0
2018-Jun-21 10:28N 40°40' W 074°03'0 0.0
2018-Jun-21 09:58N 40°40' W 074°03'0 0.0
2018-Jun-21 09:28N 40°40' W 074°03'0 0.3
2018-Jun-21 08:58N 40°40' W 074°03'0 0.1
2018-Jun-21 08:28N 40°40' W 074°03'0 0.1
2018-Jun-21 07:58N 40°40' W 074°03'0 0.1
2018-Jun-21 07:28N 40°40' W 074°03'0 0.1
2018-Jun-21 06:58N 40°40' W 074°03'0 0.1
2018-Jun-21 06:28N 40°40' W 074°03'0 0.2
2018-Jun-21 05:58N 40°40' W 074°03'0 0.0
2018-Jun-21 05:28N 40°40' W 074°03'0 0.1
2018-Jun-21 04:58N 40°40' W 074°03'0 0.1
2018-Jun-21 04:28N 40°40' W 074°03'0 0.1
2018-Jun-21 03:58N 40°40' W 074°03'0 0.1
2018-Jun-21 03:28N 40°40' W 074°03'0 0.0
2018-Jun-21 02:58N 40°40' W 074°03'0 0.0
2018-Jun-21 02:28N 40°40' W 074°03'0 0.0
2018-Jun-21 01:58N 40°40' W 074°03'0 0.0
2018-Jun-21 01:28N 40°40' W 074°03'0 0.0
2018-Jun-21 00:58N 40°40' W 074°03'0 0.1
2018-Jun-21 00:28N 40°40' W 074°03'0 0.1
2018-Jun-20 23:58N 40°40' W 074°03'0 0.0
2018-Jun-20 23:28N 40°40' W 074°03'0 0.3
2018-Jun-20 22:58N 40°40' W 074°03'0 0.1
2018-Jun-20 22:28N 40°40' W 074°03'0 0.2
2018-Jun-20 21:58N 40°40' W 074°03'0 0.0
2018-Jun-20 21:28N 40°40' W 074°03'0 0.0
2018-Jun-20 20:52N 40°40' W 074°03'0 0.0
2018-Jun-20 20:28N 40°40' W 074°03'0 0.5
2018-Jun-20 20:00N 40°40' W 074°03'510.2
2018-Jun-20 19:30N 40°38' W 074°10'0 0.1
2018-Jun-20 14:19N 40°39' W 074°10'2 6.9
2018-Jun-20 14:00N 40°39' W 074°07'3 6.0
2018-Jun-20 13:27N 40°40' W 074°03'0 0.0
2018-Jun-20 12:57N 40°40' W 074°03'0 0.0
2018-Jun-20 12:30N 40°40' W 074°03'0 0.0
2018-Jun-20 12:00N 40°40' W 074°03'0 0.0
2018-Jun-20 11:30N 40°40' W 074°03'0 0.0
2018-Jun-20 11:00N 40°40' W 074°03'0 0.1
2018-Jun-20 10:30N 40°40' W 074°03'0 0.0
2018-Jun-20 10:00N 40°40' W 074°03'0 0.0
2018-Jun-20 09:30N 40°40' W 074°03'0 0.2
2018-Jun-20 09:00N 40°40' W 074°03'0 0.3
2018-Jun-20 08:30N 40°40' W 074°03'0 0.0
2018-Jun-20 08:00N 40°40' W 074°03'0 0.1
2018-Jun-20 07:30N 40°40' W 074°03'0 0.1
2018-Jun-20 07:00N 40°40' W 074°03'0 0.0
2018-Jun-20 06:30N 40°40' W 074°03'0 0.0
2018-Jun-20 05:57N 40°40' W 074°03'0 0.0
2018-Jun-20 05:30N 40°40' W 074°03'0 0.1
2018-Jun-20 05:00N 40°40' W 074°03'0 0.1
2018-Jun-20 04:30N 40°40' W 074°03'0 0.2
2018-Jun-20 04:00N 40°40' W 074°03'0 0.1
2018-Jun-20 03:30N 40°40' W 074°03'0 0.0
2018-Jun-20 03:00N 40°40' W 074°03'0 0.1
2018-Jun-20 02:30N 40°40' W 074°03'0 0.0
2018-Jun-20 02:00N 40°40' W 074°03'0 0.0
2018-Jun-20 01:27N 40°40' W 074°03'0 0.0
2018-Jun-20 01:00N 40°40' W 074°03'0 0.0
2018-Jun-20 00:30N 40°40' W 074°03'0 0.0
2018-Jun-20 00:00N 40°40' W 074°03'0 0.0
2018-Jun-19 23:30N 40°40' W 074°03'0 0.0
2018-Jun-19 23:00N 40°40' W 074°03'0 0.0
2018-Jun-19 22:30N 40°40' W 074°03'0 0.0
2018-Jun-19 22:00N 40°40' W 074°03'0 0.0
2018-Jun-19 21:30N 40°40' W 074°03'0 0.0
2018-Jun-19 21:00N 40°40' W 074°03'0 0.0
2018-Jun-19 20:30N 40°40' W 074°03'0 0.2
2018-Jun-19 20:00N 40°40' W 074°03'0 0.2
2018-Jun-19 19:30N 40°40' W 074°03'0 0.0
2018-Jun-19 19:00N 40°40' W 074°03'0 0.1
2018-Jun-19 18:30N 40°40' W 074°03'0 0.1
2018-Jun-19 18:00N 40°40' W 074°03'0 0.0
2018-Jun-19 17:30N 40°40' W 074°03'0 0.1
2018-Jun-19 17:00N 40°40' W 074°03'0 0.2
2018-Jun-19 16:30N 40°40' W 074°03'0 0.1
2018-Jun-19 16:00N 40°40' W 074°03'3 6.8
2018-Jun-19 15:30N 40°39' W 074°07'2 0.5
2018-Jun-19 11:03N 40°39' W 074°10'0 4.8
2018-Jun-19 10:59N 40°38' W 074°10'3 6.8
2018-Jun-19 10:30N 40°39' W 074°05'2 3.5
2018-Jun-19 09:56N 40°40' W 074°03'0 0.1
2018-Jun-19 09:29N 40°40' W 074°03'0 0.1
2018-Jun-19 08:59N 40°40' W 074°03'0 0.1
2018-Jun-19 08:29N 40°40' W 074°03'0 0.1
2018-Jun-19 07:59N 40°40' W 074°03'0 0.1
2018-Jun-19 07:29N 40°40' W 074°03'0 0.1
2018-Jun-19 06:59N 40°40' W 074°03'0 0.0
2018-Jun-19 06:29N 40°40' W 074°03'0 0.0
2018-Jun-19 05:59N 40°40' W 074°03'0 0.0
2018-Jun-19 05:29N 40°40' W 074°03'0 0.0
2018-Jun-19 04:59N 40°40' W 074°03'0 0.0
2018-Jun-19 04:29N 40°40' W 074°03'0 0.0
2018-Jun-19 03:56N 40°40' W 074°03'0 0.0
2018-Jun-19 03:29N 40°40' W 074°03'0 0.1
2018-Jun-19 02:59N 40°40' W 074°03'0 0.2
2018-Jun-19 02:29N 40°40' W 074°03'0 0.1
2018-Jun-19 01:59N 40°40' W 074°03'0 0.1
2018-Jun-19 01:29N 40°40' W 074°03'0 0.1
2018-Jun-19 00:59N 40°40' W 074°03'0 0.4
2018-Jun-19 00:29N 40°40' W 074°03'0 0.1
2018-Jun-18 23:59N 40°40' W 074°03'0 0.0
2018-Jun-18 23:29N 40°40' W 074°03'0 0.0
2018-Jun-18 22:59N 40°40' W 074°03'0 0.0
2018-Jun-18 22:29N 40°40' W 074°03'0 0.0
2018-Jun-18 21:59N 40°40' W 074°03'0 0.1
2018-Jun-18 21:29N 40°40' W 074°03'0 0.1
2018-Jun-18 20:59N 40°40' W 074°03'0 0.3
2018-Jun-18 20:29N 40°40' W 074°03'0 0.1
2018-Jun-18 19:59N 40°40' W 074°03'0 0.1
2018-Jun-18 19:23N 40°40' W 074°03'0 0.1
2018-Jun-18 18:59N 40°40' W 074°03'0 0.1
2018-Jun-18 18:29N 40°40' W 074°03'0 0.0
2018-Jun-18 18:00N 40°40' W 074°03'0 0.0
2018-Jun-18 17:30N 40°40' W 074°03'0 0.0
2018-Jun-18 17:00N 40°40' W 074°03'0 0.0
2018-Jun-18 16:30N 40°40' W 074°03'0 0.0
2018-Jun-18 16:00N 40°40' W 074°03'0 0.1
2018-Jun-18 15:30N 40°40' W 074°03'1 1.0
2018-Jun-18 15:00N 40°39' W 074°03'4 7.4
2018-Jun-18 14:30N 40°36' W 074°01'0 0.1
2018-Jun-18 13:58N 40°36' W 074°01'0 0.2
2018-Jun-18 13:28N 40°36' W 074°01'0 0.0
2018-Jun-18 12:55N 40°36' W 074°01'0 0.2
2018-Jun-18 12:25N 40°36' W 074°01'0 0.2
2018-Jun-18 11:34N 40°36' W 074°01'0 0.1
2018-Jun-18 11:25N 40°36' W 074°01'0 0.1
2018-Jun-18 11:00N 40°36' W 074°01'0 0.1
2018-Jun-18 10:30N 40°36' W 074°01'3 5.8
2018-Jun-18 10:00N 40°38' W 074°03'510.4
2018-Jun-18 09:30N 40°43' W 074°01'510.1
2018-Jun-18 08:59N 40°48' W 073°59'5 9.7
2018-Jun-18 08:30N 40°52' W 073°56'  
Track history (hours):
 
Tides and Currents Weather Stations Pressure Air Temp Water Temp Dewpoint Dewpoint Depression Visibility Wind Speed Wind Dir Waves Ship Positions

Tarpon

Owner: Kirby Offshore Marine, LLC, Staten Island, NY. More information available from US FCC via Universal Licensing System and Coast Guard Vessel Documentation Center.

Last reported at 2018-Jun-25 11:24 UTC. Time now 2018-Jun-25 19:46 UTC.
Position N 40°30' W 073°56'.

Length 128 m; draft 4.9 m.

Type: . MMSI: 366920940.

Date/timePositionNaut miles runAvg speedWind from/ knotsBaromVisibWave heightAir tempDewpointWater temp
2018-Jun-25 11:24N 40°30' W 073°56'4 6.6
2018-Jun-25 10:46N 40°32' W 074°01'2 6.0
2018-Jun-25 10:29N 40°33' W 074°02'3 6.3
2018-Jun-25 10:00N 40°36' W 074°03'3 6.2
2018-Jun-25 09:30N 40°39' W 074°04'2 4.9
2018-Jun-25 09:00N 40°39' W 074°07'3 5.6
2018-Jun-25 08:30N 40°39' W 074°11'1 2.5
2018-Jun-25 08:00N 40°38' W 074°12'0 0.0
2018-Jun-25 07:25N 40°38' W 074°12'0 0.0
2018-Jun-25 06:53N 40°38' W 074°12'0 0.0
2018-Jun-25 06:26N 40°38' W 074°12'0 0.0
2018-Jun-25 05:56N 40°38' W 074°12'0 0.0
2018-Jun-25 05:29N 40°38' W 074°12'0 0.0
2018-Jun-25 04:59N 40°38' W 074°12'0 0.0
2018-Jun-25 04:26N 40°38' W 074°12'0 0.0
2018-Jun-25 03:59N 40°38' W 074°12'0 0.0
2018-Jun-25 03:29N 40°38' W 074°12'0 0.0
2018-Jun-25 02:59N 40°38' W 074°12'0 0.0
2018-Jun-25 02:29N 40°38' W 074°12'0 0.0
2018-Jun-25 01:59N 40°38' W 074°12'0 0.0
2018-Jun-25 01:29N 40°38' W 074°12'0 0.0
2018-Jun-25 00:59N 40°38' W 074°12'0 0.0
2018-Jun-25 00:29N 40°38' W 074°12'0 0.0
2018-Jun-24 23:59N 40°38' W 074°12'0 0.0
2018-Jun-24 23:29N 40°38' W 074°12'0 0.0
2018-Jun-24 22:59N 40°38' W 074°12'0 0.0
2018-Jun-24 22:29N 40°38' W 074°12'0 0.0
2018-Jun-24 21:59N 40°38' W 074°12'0 0.0
2018-Jun-24 21:29N 40°38' W 074°12'0 0.0
2018-Jun-24 20:59N 40°38' W 074°12'0 0.0
2018-Jun-24 20:29N 40°38' W 074°12'0 0.0
2018-Jun-24 19:59N 40°38' W 074°12'0 0.0
2018-Jun-24 19:29N 40°38' W 074°12'0 0.0
2018-Jun-24 18:59N 40°38' W 074°12'0 0.0
2018-Jun-24 18:29N 40°38' W 074°12'0 0.0
2018-Jun-24 17:26N 40°38' W 074°12'0 0.0
2018-Jun-24 16:41N 40°38' W 074°12'0 0.0
2018-Jun-24 16:23N 40°38' W 074°12'0 0.0
2018-Jun-24 15:59N 40°38' W 074°12'0 0.0
2018-Jun-24 15:29N 40°38' W 074°12'0 0.0
2018-Jun-24 14:59N 40°38' W 074°12'0 0.0
2018-Jun-24 14:29N 40°38' W 074°12'0 0.0
2018-Jun-24 13:56N 40°38' W 074°12'0 0.0
2018-Jun-24 13:29N 40°38' W 074°12'0 0.0
2018-Jun-24 12:59N 40°38' W 074°12'0 0.0
2018-Jun-24 12:29N 40°38' W 074°12'0 0.0
2018-Jun-24 11:53N 40°38' W 074°12'0 0.0
2018-Jun-24 11:26N 40°38' W 074°12'0 0.0
2018-Jun-24 10:53N 40°38' W 074°12'0 0.0
2018-Jun-24 10:29N 40°38' W 074°12'0 0.0
2018-Jun-24 09:56N 40°38' W 074°12'0 0.0
2018-Jun-24 09:29N 40°38' W 074°12'0 0.0
2018-Jun-24 08:56N 40°38' W 074°12'0 0.0
2018-Jun-24 08:20N 40°38' W 074°12'0 0.0
2018-Jun-24 07:59N 40°38' W 074°12'0 0.0
2018-Jun-24 07:29N 40°38' W 074°12'0 0.0
2018-Jun-24 06:56N 40°38' W 074°12'0 0.0
2018-Jun-24 06:29N 40°38' W 074°12'0 0.0
2018-Jun-24 05:35N 40°38' W 074°12'0 0.0
2018-Jun-24 05:25N 40°38' W 074°12'1 1.3
2018-Jun-24 04:50N 40°38' W 074°12'2 5.6
2018-Jun-24 04:31N 40°39' W 074°09'0 0.5
2018-Jun-24 03:58N 40°38' W 074°09'0 0.0
2018-Jun-24 03:28N 40°38' W 074°09'0 0.0
2018-Jun-24 02:59N 40°38' W 074°09'0 0.0
2018-Jun-24 02:28N 40°38' W 074°10'0 0.0
2018-Jun-24 01:58N 40°38' W 074°10'0 0.0
2018-Jun-23 12:34N 40°39' W 074°10'0 3.0
2018-Jun-23 12:30N 40°38' W 074°10'0 0.3
2018-Jun-23 12:00N 40°38' W 074°09'0 0.0
2018-Jun-23 11:28N 40°38' W 074°09'0 0.0
2018-Jun-23 10:58N 40°38' W 074°10'0 0.0
2018-Jun-23 10:28N 40°38' W 074°09'0 0.0
2018-Jun-23 09:58N 40°38' W 074°09'0 0.0
2018-Jun-23 09:28N 40°38' W 074°10'0 0.0
2018-Jun-23 08:58N 40°38' W 074°09'0 0.0
2018-Jun-23 08:28N 40°38' W 074°09'0 0.0
2018-Jun-23 07:58N 40°38' W 074°09'0 0.0
2018-Jun-23 07:28N 40°38' W 074°09'0 0.0
2018-Jun-23 06:58N 40°38' W 074°09'0 0.0
2018-Jun-23 06:28N 40°38' W 074°10'0 0.0
2018-Jun-23 05:58N 40°38' W 074°09'0 0.0
2018-Jun-23 05:28N 40°38' W 074°09'0 0.0
2018-Jun-23 04:58N 40°38' W 074°10'0 0.0
2018-Jun-23 04:28N 40°38' W 074°09'0 0.0
2018-Jun-23 03:58N 40°38' W 074°10'0 0.0
2018-Jun-23 03:25N 40°38' W 074°09'0 0.0
2018-Jun-23 02:58N 40°38' W 074°09'0 0.0
2018-Jun-23 02:25N 40°38' W 074°09'0 0.0
2018-Jun-23 01:58N 40°38' W 074°10'0 0.0
2018-Jun-23 01:25N 40°38' W 074°09'0 0.0
2018-Jun-23 00:58N 40°38' W 074°10'0 0.0
2018-Jun-23 00:28N 40°38' W 074°09'0 0.0
2018-Jun-22 23:55N 40°38' W 074°09'0 0.0
2018-Jun-22 23:28N 40°38' W 074°10'0 0.0
2018-Jun-22 22:58N 40°38' W 074°09'0 0.0
2018-Jun-22 22:28N 40°38' W 074°09'0 0.0
2018-Jun-22 21:58N 40°38' W 074°10'0 0.0
2018-Jun-22 21:28N 40°38' W 074°10'0 0.0
2018-Jun-22 21:00N 40°38' W 074°09'1 2.8
2018-Jun-22 20:30N 40°39' W 074°08'4 7.5
2018-Jun-22 20:00N 40°40' W 074°03'0 0.5
2018-Jun-22 19:28N 40°40' W 074°03'0 0.0
2018-Jun-22 18:58N 40°40' W 074°03'0 0.0
2018-Jun-22 18:28N 40°40' W 074°03'0 0.2
2018-Jun-22 17:55N 40°40' W 074°03'0 0.1
2018-Jun-22 17:28N 40°40' W 074°03'0 0.1
2018-Jun-22 16:52N 40°40' W 074°03'0 0.0
2018-Jun-22 16:28N 40°40' W 074°03'0 0.0
2018-Jun-22 15:58N 40°40' W 074°03'2 4.2
2018-Jun-22 15:30N 40°39' W 074°05'4 3.3
2018-Jun-22 14:24N 40°39' W 074°10'3 8.2
2018-Jun-22 14:00N 40°39' W 074°06'2 4.7
2018-Jun-22 13:30N 40°40' W 074°03'0 0.1
2018-Jun-22 12:58N 40°40' W 074°03'0 0.0
2018-Jun-22 12:28N 40°40' W 074°03'0 0.0
2018-Jun-22 11:58N 40°40' W 074°03'0 0.0
2018-Jun-22 11:25N 40°40' W 074°03'0 0.0
2018-Jun-22 10:58N 40°40' W 074°03'0 0.2
2018-Jun-22 10:28N 40°40' W 074°03'0 0.1
2018-Jun-22 09:58N 40°40' W 074°03'0 0.2
2018-Jun-22 09:28N 40°40' W 074°03'0 0.1
2018-Jun-22 08:58N 40°40' W 074°03'0 0.1
2018-Jun-22 08:28N 40°40' W 074°03'0 0.0
2018-Jun-22 07:58N 40°40' W 074°03'0 0.1
2018-Jun-22 07:28N 40°40' W 074°03'0 0.1
2018-Jun-22 06:58N 40°40' W 074°03'0 0.1
2018-Jun-22 06:28N 40°40' W 074°03'0 0.1
2018-Jun-22 05:58N 40°40' W 074°03'0 0.1
2018-Jun-22 05:28N 40°40' W 074°03'0 0.1
2018-Jun-22 04:58N 40°40' W 074°03'0 0.0
2018-Jun-22 04:28N 40°40' W 074°03'0 0.0
2018-Jun-22 03:58N 40°40' W 074°03'0 0.0
2018-Jun-22 03:28N 40°40' W 074°03'0 0.0
2018-Jun-22 02:58N 40°40' W 074°03'0 0.0
2018-Jun-22 02:28N 40°40' W 074°03'0 0.1
2018-Jun-22 01:55N 40°40' W 074°03'0 0.1
2018-Jun-22 01:28N 40°40' W 074°03'0 0.1
2018-Jun-22 00:58N 40°40' W 074°03'0 0.0
2018-Jun-22 00:28N 40°40' W 074°03'0 0.2
2018-Jun-21 23:58N 40°40' W 074°03'0 0.2
2018-Jun-21 23:28N 40°40' W 074°03'0 0.1
2018-Jun-21 22:58N 40°40' W 074°03'0 0.1
2018-Jun-21 22:28N 40°40' W 074°03'0 0.1
2018-Jun-21 21:58N 40°40' W 074°03'0 0.1
2018-Jun-21 21:28N 40°40' W 074°03'0 0.1
2018-Jun-21 20:58N 40°40' W 074°03'0 0.0
2018-Jun-21 20:28N 40°40' W 074°03'0 0.0
2018-Jun-21 19:55N 40°40' W 074°03'0 0.0
2018-Jun-21 19:28N 40°40' W 074°03'0 0.0
2018-Jun-21 18:58N 40°40' W 074°03'0 0.3
2018-Jun-21 18:28N 40°40' W 074°03'0 0.1
2018-Jun-21 17:58N 40°40' W 074°03'0 0.0
2018-Jun-21 17:28N 40°40' W 074°03'0 0.0
2018-Jun-21 16:58N 40°40' W 074°03'0 0.0
2018-Jun-21 16:28N 40°40' W 074°03'0 0.0
2018-Jun-21 15:58N 40°40' W 074°03'0 0.0
2018-Jun-21 15:28N 40°40' W 074°03'0 0.0
2018-Jun-21 14:58N 40°40' W 074°03'0 0.0
2018-Jun-21 14:28N 40°40' W 074°03'0 0.0
2018-Jun-21 13:58N 40°40' W 074°03'0 0.0
2018-Jun-21 13:28N 40°40' W 074°03'0 0.0
2018-Jun-21 12:58N 40°40' W 074°03'0 0.0
2018-Jun-21 12:28N 40°40' W 074°03'0 0.0
2018-Jun-21 11:58N 40°40' W 074°03'0 0.1
2018-Jun-21 11:28N 40°40' W 074°03'0 0.0
2018-Jun-21 10:58N 40°40' W 074°03'0 0.0
2018-Jun-21 10:28N 40°40' W 074°03'0 0.0
2018-Jun-21 09:58N 40°40' W 074°03'0 0.0
2018-Jun-21 09:28N 40°40' W 074°03'0 0.3
2018-Jun-21 08:58N 40°40' W 074°03'0 0.1
2018-Jun-21 08:28N 40°40' W 074°03'0 0.1
2018-Jun-21 07:58N 40°40' W 074°03'0 0.1
2018-Jun-21 07:28N 40°40' W 074°03'0 0.1
2018-Jun-21 06:58N 40°40' W 074°03'0 0.1
2018-Jun-21 06:28N 40°40' W 074°03'0 0.2
2018-Jun-21 05:58N 40°40' W 074°03'0 0.0
2018-Jun-21 05:28N 40°40' W 074°03'0 0.1
2018-Jun-21 04:58N 40°40' W 074°03'0 0.1
2018-Jun-21 04:28N 40°40' W 074°03'0 0.1
2018-Jun-21 03:58N 40°40' W 074°03'0 0.1
2018-Jun-21 03:28N 40°40' W 074°03'0 0.0
2018-Jun-21 02:58N 40°40' W 074°03'0 0.0
2018-Jun-21 02:28N 40°40' W 074°03'0 0.0
2018-Jun-21 01:58N 40°40' W 074°03'0 0.0
2018-Jun-21 01:28N 40°40' W 074°03'0 0.0
2018-Jun-21 00:58N 40°40' W 074°03'0 0.1
2018-Jun-21 00:28N 40°40' W 074°03'0 0.1
2018-Jun-20 23:58N 40°40' W 074°03'0 0.0
2018-Jun-20 23:28N 40°40' W 074°03'0 0.3
2018-Jun-20 22:58N 40°40' W 074°03'0 0.1
2018-Jun-20 22:28N 40°40' W 074°03'0 0.2
2018-Jun-20 21:58N 40°40' W 074°03'0 0.0
2018-Jun-20 21:28N 40°40' W 074°03'0 0.0
2018-Jun-20 20:52N 40°40' W 074°03'0 0.0
2018-Jun-20 20:28N 40°40' W 074°03'0 0.5
2018-Jun-20 20:00N 40°40' W 074°03'510.2
2018-Jun-20 19:30N 40°38' W 074°10'0 0.1
2018-Jun-20 14:19N 40°39' W 074°10'2 6.9
2018-Jun-20 14:00N 40°39' W 074°07'3 6.0
2018-Jun-20 13:27N 40°40' W 074°03'0 0.0
2018-Jun-20 12:57N 40°40' W 074°03'0 0.0
2018-Jun-20 12:30N 40°40' W 074°03'0 0.0
2018-Jun-20 12:00N 40°40' W 074°03'0 0.0
2018-Jun-20 11:30N 40°40' W 074°03'0 0.0
2018-Jun-20 11:00N 40°40' W 074°03'0 0.1
2018-Jun-20 10:30N 40°40' W 074°03'0 0.0
2018-Jun-20 10:00N 40°40' W 074°03'0 0.0
2018-Jun-20 09:30N 40°40' W 074°03'0 0.2
2018-Jun-20 09:00N 40°40' W 074°03'0 0.3
2018-Jun-20 08:30N 40°40' W 074°03'0 0.0
2018-Jun-20 08:00N 40°40' W 074°03'0 0.1
2018-Jun-20 07:30N 40°40' W 074°03'0 0.1
2018-Jun-20 07:00N 40°40' W 074°03'0 0.0
2018-Jun-20 06:30N 40°40' W 074°03'0 0.0
2018-Jun-20 05:57N 40°40' W 074°03'0 0.0
2018-Jun-20 05:30N 40°40' W 074°03'0 0.1
2018-Jun-20 05:00N 40°40' W 074°03'0 0.1
2018-Jun-20 04:30N 40°40' W 074°03'0 0.2
2018-Jun-20 04:00N 40°40' W 074°03'0 0.1
2018-Jun-20 03:30N 40°40' W 074°03'0 0.0
2018-Jun-20 03:00N 40°40' W 074°03'0 0.1
2018-Jun-20 02:30N 40°40' W 074°03'0 0.0
2018-Jun-20 02:00N 40°40' W 074°03'0 0.0
2018-Jun-20 01:27N 40°40' W 074°03'0 0.0
2018-Jun-20 01:00N 40°40' W 074°03'0 0.0
2018-Jun-20 00:30N 40°40' W 074°03'0 0.0
2018-Jun-20 00:00N 40°40' W 074°03'0 0.0
2018-Jun-19 23:30N 40°40' W 074°03'0 0.0
2018-Jun-19 23:00N 40°40' W 074°03'0 0.0
2018-Jun-19 22:30N 40°40' W 074°03'0 0.0
2018-Jun-19 22:00N 40°40' W 074°03'0 0.0
2018-Jun-19 21:30N 40°40' W 074°03'0 0.0
2018-Jun-19 21:00N 40°40' W 074°03'0 0.0
2018-Jun-19 20:30N 40°40' W 074°03'0 0.2
2018-Jun-19 20:00N 40°40' W 074°03'0 0.2
2018-Jun-19 19:30N 40°40' W 074°03'0 0.0
2018-Jun-19 19:00N 40°40' W 074°03'0 0.1
2018-Jun-19 18:30N 40°40' W 074°03'0 0.1
2018-Jun-19 18:00N 40°40' W 074°03'0 0.0
2018-Jun-19 17:30N 40°40' W 074°03'0 0.1
2018-Jun-19 17:00N 40°40' W 074°03'0 0.2
2018-Jun-19 16:30N 40°40' W 074°03'0 0.1
2018-Jun-19 16:00N 40°40' W 074°03'3 6.8
2018-Jun-19 15:30N 40°39' W 074°07'2 0.5
2018-Jun-19 11:03N 40°39' W 074°10'0 4.8
2018-Jun-19 10:59N 40°38' W 074°10'3 6.8
2018-Jun-19 10:30N 40°39' W 074°05'2 3.5
2018-Jun-19 09:56N 40°40' W 074°03'0 0.1
2018-Jun-19 09:29N 40°40' W 074°03'0 0.1
2018-Jun-19 08:59N 40°40' W 074°03'0 0.1
2018-Jun-19 08:29N 40°40' W 074°03'0 0.1
2018-Jun-19 07:59N 40°40' W 074°03'0 0.1
2018-Jun-19 07:29N 40°40' W 074°03'0 0.1
2018-Jun-19 06:59N 40°40' W 074°03'0 0.0
2018-Jun-19 06:29N 40°40' W 074°03'0 0.0
2018-Jun-19 05:59N 40°40' W 074°03'0 0.0
2018-Jun-19 05:29N 40°40' W 074°03'0 0.0
2018-Jun-19 04:59N 40°40' W 074°03'0 0.0
2018-Jun-19 04:29N 40°40' W 074°03'0 0.0
2018-Jun-19 03:56N 40°40' W 074°03'0 0.0
2018-Jun-19 03:29N 40°40' W 074°03'0 0.1
2018-Jun-19 02:59N 40°40' W 074°03'0 0.2
2018-Jun-19 02:29N 40°40' W 074°03'0 0.1
2018-Jun-19 01:59N 40°40' W 074°03'0 0.1
2018-Jun-19 01:29N 40°40' W 074°03'0 0.1
2018-Jun-19 00:59N 40°40' W 074°03'0 0.4
2018-Jun-19 00:29N 40°40' W 074°03'0 0.1
2018-Jun-18 23:59N 40°40' W 074°03'0 0.0
2018-Jun-18 23:29N 40°40' W 074°03'0 0.0
2018-Jun-18 22:59N 40°40' W 074°03'0 0.0
2018-Jun-18 22:29N 40°40' W 074°03'0 0.0
2018-Jun-18 21:59N 40°40' W 074°03'0 0.1
2018-Jun-18 21:29N 40°40' W 074°03'0 0.1
2018-Jun-18 20:59N 40°40' W 074°03'0 0.3
2018-Jun-18 20:29N 40°40' W 074°03'0 0.1
2018-Jun-18 19:59N 40°40' W 074°03'0 0.1
2018-Jun-18 19:23N 40°40' W 074°03'0 0.1
2018-Jun-18 18:59N 40°40' W 074°03'0 0.1
2018-Jun-18 18:29N 40°40' W 074°03'0 0.0
2018-Jun-18 18:00N 40°40' W 074°03'0 0.0
2018-Jun-18 17:30N 40°40' W 074°03'0 0.0
2018-Jun-18 17:00N 40°40' W 074°03'0 0.0
2018-Jun-18 16:30N 40°40' W 074°03'0 0.0
2018-Jun-18 16:00N 40°40' W 074°03'0 0.1
2018-Jun-18 15:30N 40°40' W 074°03'1 1.0
2018-Jun-18 15:00N 40°39' W 074°03'4 7.4
2018-Jun-18 14:30N 40°36' W 074°01'0 0.1
2018-Jun-18 13:58N 40°36' W 074°01'0 0.2
2018-Jun-18 13:28N 40°36' W 074°01'0 0.0
2018-Jun-18 12:55N 40°36' W 074°01'0 0.2
2018-Jun-18 12:25N 40°36' W 074°01'0 0.2
2018-Jun-18 11:34N 40°36' W 074°01'0 0.1
2018-Jun-18 11:25N 40°36' W 074°01'0 0.1
2018-Jun-18 11:00N 40°36' W 074°01'0 0.1
2018-Jun-18 10:30N 40°36' W 074°01'3 5.8
2018-Jun-18 10:00N 40°38' W 074°03'510.4
2018-Jun-18 09:30N 40°43' W 074°01'510.1
2018-Jun-18 08:59N 40°48' W 073°59'5 9.7
2018-Jun-18 08:30N 40°52' W 073°56'  

Dump ship's entire track history